createdAt,value
2023-06-27T00:02:13.099Z,100192.97
2023-06-27T00:04:41.276Z,100196.72
2023-06-27T00:07:07.936Z,100190.25
2023-06-27T00:09:34.525Z,100194.00
2023-06-27T00:12:02.397Z,100194.97
2023-06-27T00:14:28.987Z,100193.34
2023-06-27T00:16:55.576Z,100196.59
2023-06-27T00:19:22.226Z,100197.47
2023-06-27T00:21:50.122Z,100203.72
2023-06-27T00:24:16.915Z,100196.25
2023-06-27T00:26:43.537Z,100205.25
2023-06-27T00:29:10.125Z,100204.00
2023-06-27T00:31:36.764Z,100199.13
2023-06-27T00:34:03.359Z,100203.50
2023-06-27T00:36:29.946Z,100203.63
2023-06-27T00:38:58.072Z,100205.63
2023-06-27T00:41:24.700Z,100204.66
2023-06-27T00:43:51.496Z,100203.13
2023-06-27T00:46:32.840Z,100203.13
2023-06-27T00:48:59.609Z,100208.28
2023-06-27T00:51:26.259Z,100202.25
2023-06-27T00:53:53.064Z,100204.25
2023-06-27T00:56:21.148Z,100204.75
2023-06-27T00:58:47.774Z,100204.25
2023-06-27T01:01:14.508Z,100201.13
2023-06-27T01:03:41.184Z,100195.53
2023-06-27T01:06:13.721Z,100197.16
2023-06-27T01:08:43.044Z,100193.78
2023-06-27T01:11:15.981Z,100195.78
2023-06-27T01:13:49.649Z,100188.94
2023-06-27T01:16:19.261Z,100186.28
2023-06-27T01:18:47.785Z,100193.31
2023-06-27T01:21:17.522Z,100196.78
2023-06-27T01:23:52.017Z,100191.53
2023-06-27T01:26:18.604Z,100193.31
2023-06-27T01:28:45.208Z,100194.28
2023-06-27T01:31:20.526Z,100198.03
2023-06-27T01:33:52.191Z,100195.16
2023-06-27T01:36:22.545Z,100191.78
2023-06-27T01:38:57.516Z,100188.06
2023-06-27T01:41:28.933Z,100195.16
2023-06-27T01:43:58.820Z,100186.28
2023-06-27T01:46:26.712Z,100177.44
2023-06-27T01:48:55.227Z,100184.19
2023-06-27T01:51:22.202Z,100178.94
2023-06-27T01:53:50.310Z,100180.69
2023-06-27T01:56:18.224Z,100178.81
2023-06-27T01:58:44.792Z,100181.44
2023-06-27T02:01:11.885Z,100177.94
2023-06-27T02:03:38.598Z,100183.16
2023-06-27T02:06:05.571Z,100186.44
2023-06-27T02:08:32.249Z,100182.56
2023-06-27T02:11:00.207Z,100187.19
2023-06-27T02:13:26.945Z,100180.31
2023-06-27T02:15:53.742Z,100183.53
2023-06-27T02:18:20.357Z,100187.28
2023-06-27T02:20:47.070Z,100176.56
2023-06-27T02:23:13.687Z,100183.16
2023-06-27T02:25:40.491Z,100172.69
2023-06-27T02:28:08.775Z,100173.69
2023-06-27T02:30:35.397Z,100173.56
2023-06-27T02:33:02.067Z,100166.44
2023-06-27T02:35:28.792Z,100174.56
2023-06-27T02:37:55.370Z,100164.59
2023-06-27T02:40:22.128Z,100169.44
2023-06-27T02:42:49.037Z,100160.00
2023-06-27T02:45:17.115Z,100169.44
2023-06-27T02:47:43.721Z,100174.94
2023-06-27T02:50:11.080Z,100161.22
2023-06-27T02:52:37.729Z,100169.94
2023-06-27T02:55:04.907Z,100175.94
2023-06-27T02:57:31.833Z,100175.34
2023-06-27T02:59:58.290Z,100181.19
2023-06-27T03:02:26.214Z,100176.69
2023-06-27T03:04:53.521Z,100180.94
2023-06-27T03:07:20.069Z,100185.16
2023-06-27T03:09:46.869Z,100190.91
2023-06-27T03:12:13.443Z,100178.69
2023-06-27T03:14:41.209Z,100179.94
2023-06-27T03:17:07.865Z,100183.53
2023-06-27T03:19:43.993Z,100183.44
2023-06-27T03:22:11.758Z,100176.06
2023-06-27T03:24:39.049Z,100179.44
2023-06-27T03:27:06.516Z,100171.44
2023-06-27T03:29:33.194Z,100172.31
2023-06-27T03:31:59.854Z,100173.94
2023-06-27T03:34:26.709Z,100182.69
2023-06-27T03:36:54.655Z,100179.06
2023-06-27T03:39:21.218Z,100176.41
2023-06-27T03:41:48.346Z,100178.41
2023-06-27T03:44:15.206Z,100182.91
2023-06-27T03:46:41.899Z,100181.78
2023-06-27T03:49:08.496Z,100187.16
2023-06-27T03:51:35.205Z,100180.38
2023-06-27T03:54:03.575Z,100178.75
2023-06-27T03:56:30.556Z,100188.09
2023-06-27T03:58:57.185Z,100184.81
2023-06-27T04:01:24.136Z,100180.19
2023-06-27T04:03:50.899Z,100187.97
2023-06-27T04:06:17.952Z,100187.47
2023-06-27T04:08:44.976Z,100181.09
2023-06-27T04:11:12.882Z,100190.28
2023-06-27T04:13:39.532Z,100190.66
2023-06-27T04:16:06.704Z,100180.47
2023-06-27T04:18:33.339Z,100185.72
2023-06-27T04:20:59.986Z,100173.13
2023-06-27T04:23:26.707Z,100176.25
2023-06-27T04:26:03.610Z,100179.28
2023-06-27T04:28:32.354Z,100172.38
2023-06-27T04:31:00.366Z,100176.31
2023-06-27T04:33:27.310Z,100171.59
2023-06-27T04:35:54.084Z,100178.41
2023-06-27T04:38:20.827Z,100170.69
2023-06-27T04:40:47.556Z,100161.97
2023-06-27T04:43:14.160Z,100165.94
2023-06-27T04:45:42.578Z,100172.97
2023-06-27T04:48:09.593Z,100173.47
2023-06-27T04:50:36.455Z,100168.88
2023-06-27T04:53:03.349Z,100167.16
2023-06-27T04:55:29.936Z,100174.13
2023-06-27T04:57:56.693Z,100176.38
2023-06-27T05:00:23.400Z,100177.72
2023-06-27T05:02:51.383Z,100179.59
2023-06-27T05:05:18.185Z,100178.44
2023-06-27T05:07:44.866Z,100180.63
2023-06-27T05:10:11.926Z,100171.03
2023-06-27T05:12:38.520Z,100171.78
2023-06-27T05:15:06.324Z,100178.56
2023-06-27T05:17:32.990Z,100171.84
2023-06-27T05:20:01.036Z,100178.06
2023-06-27T05:22:27.638Z,100175.75
2023-06-27T05:24:54.333Z,100176.72
2023-06-27T05:27:20.951Z,100175.88
2023-06-27T05:29:47.847Z,100174.56
2023-06-27T05:32:14.458Z,100170.25
2023-06-27T05:34:41.095Z,100177.94
2023-06-27T05:37:09.246Z,100181.09
2023-06-27T05:39:35.844Z,100188.34
2023-06-27T05:42:02.661Z,100183.38
2023-06-27T05:44:29.430Z,100174.00
2023-06-27T05:46:56.023Z,100185.03
2023-06-27T05:49:22.773Z,100185.22
2023-06-27T05:51:49.644Z,100183.41
2023-06-27T05:54:17.644Z,100191.53
2023-06-27T05:56:48.389Z,100185.69
2023-06-27T05:59:15.364Z,100184.72
2023-06-27T06:01:42.294Z,100193.09
2023-06-27T06:04:10.366Z,100173.13
2023-06-27T06:06:37.156Z,100175.97
2023-06-27T06:09:03.964Z,100185.97
2023-06-27T06:11:32.022Z,100169.31
2023-06-27T06:13:58.593Z,100170.47
2023-06-27T06:16:25.348Z,100163.88
2023-06-27T06:18:52.121Z,100168.94
2023-06-27T06:21:18.875Z,100167.53
2023-06-27T06:23:45.492Z,100170.16
2023-06-27T06:26:12.109Z,100164.72
2023-06-27T06:28:40.116Z,100165.59
2023-06-27T06:31:06.825Z,100167.34
2023-06-27T06:33:33.598Z,100166.16
2023-06-27T06:36:00.331Z,100168.09
2023-06-27T06:38:26.916Z,100164.31
2023-06-27T06:40:53.667Z,100160.47
2023-06-27T06:43:20.261Z,100173.78
2023-06-27T06:45:48.428Z,100155.66
2023-06-27T06:48:15.042Z,100161.28
2023-06-27T06:50:41.873Z,100171.19
2023-06-27T06:53:08.475Z,100167.09
2023-06-27T06:55:35.118Z,100162.81
2023-06-27T06:58:01.935Z,100171.44
2023-06-27T07:00:28.565Z,100171.63
2023-06-27T07:02:56.674Z,100166.00
2023-06-27T07:05:23.452Z,100166.03
2023-06-27T07:07:50.071Z,100164.06
2023-06-27T07:10:16.642Z,100169.84
2023-06-27T07:12:43.408Z,100186.34
2023-06-27T07:15:10.655Z,100174.25
2023-06-27T07:17:39.814Z,100170.78
2023-06-27T07:20:09.493Z,100166.06
2023-06-27T07:22:36.156Z,100176.38
2023-06-27T07:25:02.799Z,100165.81
2023-06-27T07:27:29.561Z,100164.97
2023-06-27T07:29:56.144Z,100170.75
2023-06-27T07:32:23.436Z,100170.09
2023-06-27T07:34:50.093Z,100169.66
2023-06-27T07:37:18.635Z,100167.06
2023-06-27T07:39:45.249Z,100161.72
2023-06-27T07:42:11.857Z,100163.13
2023-06-27T07:44:38.639Z,100160.69
2023-06-27T07:47:05.539Z,100159.78
2023-06-27T07:49:32.526Z,100157.34
2023-06-27T07:51:59.382Z,100155.63
2023-06-27T07:54:27.957Z,100164.19
2023-06-27T07:56:54.897Z,100163.53
2023-06-27T07:59:21.711Z,100158.28
2023-06-27T08:01:48.335Z,100157.84
2023-06-27T08:04:14.999Z,100158.69
2023-06-27T08:06:42.270Z,100148.41
2023-06-27T08:09:09.007Z,100151.25
2023-06-27T08:11:36.964Z,100156.97
2023-06-27T08:14:03.954Z,100163.00
2023-06-27T08:16:30.752Z,100159.97
2023-06-27T08:18:57.566Z,100150.91
2023-06-27T08:21:24.145Z,100155.44
2023-06-27T08:23:50.856Z,100157.19
2023-06-27T08:26:18.295Z,100155.19
2023-06-27T08:28:46.416Z,100157.84
2023-06-27T08:31:13.657Z,100158.47
2023-06-27T08:33:40.807Z,100149.84
2023-06-27T08:36:08.162Z,100153.50
2023-06-27T08:38:34.777Z,100143.72
2023-06-27T08:41:02.179Z,100149.34
2023-06-27T08:43:29.100Z,100146.31
2023-06-27T08:45:57.069Z,100139.50
2023-06-27T08:48:23.940Z,100142.66
2023-06-27T08:50:52.798Z,100139.69
2023-06-27T08:53:22.726Z,100137.28
2023-06-27T08:55:58.731Z,100131.03
2023-06-27T08:58:31.409Z,100126.88
2023-06-27T09:01:01.574Z,100124.59
2023-06-27T09:03:29.003Z,100120.19
2023-06-27T09:05:56.788Z,100119.69
2023-06-27T09:08:23.927Z,100120.91
2023-06-27T09:10:50.508Z,100131.06
2023-06-27T09:13:19.144Z,100130.41
2023-06-27T09:15:45.844Z,100121.66
2023-06-27T09:18:14.585Z,100126.53
2023-06-27T09:20:41.447Z,100127.72
2023-06-27T09:23:08.945Z,100128.97
2023-06-27T09:25:35.583Z,100120.81
2023-06-27T09:28:14.779Z,100129.16
2023-06-27T09:30:52.115Z,100123.28
2023-06-27T09:33:20.587Z,100120.03
2023-06-27T09:36:01.043Z,100123.94
2023-06-27T09:41:05.219Z,100121.78
2023-06-27T09:43:32.390Z,100112.31
2023-06-27T09:45:59.794Z,100109.44
2023-06-27T09:48:28.896Z,100114.47
2023-06-27T09:50:59.505Z,100123.69
2023-06-27T09:53:26.400Z,100124.69
2023-06-27T09:55:59.085Z,100122.34
2023-06-27T09:58:29.823Z,100119.78
2023-06-27T10:01:03.145Z,100125.19
2023-06-27T10:03:31.231Z,100123.84
2023-06-27T10:06:07.837Z,100121.72
2023-06-27T10:08:36.670Z,100118.13
2023-06-27T10:11:03.430Z,100116.31
2023-06-27T10:13:30.093Z,100119.41
2023-06-27T10:15:57.135Z,100113.44
2023-06-27T10:18:24.890Z,100117.44
2023-06-27T10:20:56.040Z,100113.50
2023-06-27T10:23:23.211Z,100128.94
2023-06-27T10:25:50.067Z,100118.00
2023-06-27T10:28:16.863Z,100118.06
2023-06-27T10:30:47.721Z,100113.78
2023-06-27T10:33:22.668Z,100116.13
2023-06-27T10:35:51.868Z,100112.06
2023-06-27T10:38:20.409Z,100116.63
2023-06-27T10:41:26.761Z,100115.19
2023-06-27T10:43:54.049Z,100108.94
2023-06-27T10:46:22.375Z,100114.88
2023-06-27T10:48:50.973Z,100111.22
2023-06-27T10:51:19.385Z,100108.94
2023-06-27T10:54:17.651Z,100114.38
2023-06-27T10:56:45.513Z,100118.06
2023-06-27T10:59:14.986Z,100123.25
2023-06-27T11:01:50.608Z,100108.78
2023-06-27T11:04:18.417Z,100108.22
2023-06-27T11:06:45.979Z,100106.41
2023-06-27T11:09:14.282Z,100117.81
2023-06-27T11:11:52.951Z,100106.97
2023-06-27T11:14:33.792Z,100109.78
2023-06-27T11:17:01.269Z,100116.44
2023-06-27T11:19:28.020Z,100120.28
2023-06-27T11:21:56.805Z,100129.34
2023-06-27T11:24:23.859Z,100120.31
2023-06-27T11:26:52.414Z,100131.47
2023-06-27T11:29:19.287Z,100126.09
2023-06-27T11:31:46.056Z,100121.25
2023-06-27T11:34:12.947Z,100115.84
2023-06-27T11:36:39.880Z,100120.50
2023-06-27T11:39:06.938Z,100114.72
2023-06-27T11:41:33.533Z,100115.19
2023-06-27T11:44:01.583Z,100107.13
2023-06-27T11:46:28.175Z,100111.34
2023-06-27T11:48:54.912Z,100115.47
2023-06-27T11:51:21.524Z,100108.34
2023-06-27T11:53:49.458Z,100107.34
2023-06-27T11:56:22.224Z,100111.44
2023-06-27T11:58:50.126Z,100111.44
2023-06-27T12:01:20.502Z,100114.41
2023-06-27T12:03:48.598Z,100118.41
2023-06-27T12:06:26.080Z,100113.66
2023-06-27T12:08:53.046Z,100117.88
2023-06-27T12:11:26.583Z,100110.81
2023-06-27T12:13:53.330Z,100109.19
2023-06-27T12:16:26.753Z,100108.88
2023-06-27T12:18:53.657Z,100101.72
2023-06-27T12:21:20.302Z,100103.47
2023-06-27T12:23:47.065Z,100104.34
2023-06-27T12:26:13.718Z,100099.78
2023-06-27T12:28:55.300Z,100095.06
2023-06-27T12:31:22.240Z,100090.75
2023-06-27T12:33:50.240Z,100093.53
2023-06-27T12:36:16.824Z,100089.44
2023-06-27T12:38:43.543Z,100092.00
2023-06-27T12:41:10.234Z,100095.88
2023-06-27T12:43:36.748Z,100085.31
2023-06-27T12:46:04.422Z,100086.63
2023-06-27T12:48:31.270Z,100084.88
2023-06-27T12:50:59.206Z,100095.63
2023-06-27T12:53:25.817Z,100092.03
2023-06-27T12:55:52.715Z,100086.00
2023-06-27T12:58:19.475Z,100086.50
2023-06-27T13:00:46.289Z,100081.13
2023-06-27T13:03:18.564Z,100073.31
2023-06-27T13:05:46.026Z,100076.56
2023-06-27T13:08:14.219Z,100074.78
2023-06-27T13:10:41.042Z,100069.00
2023-06-27T13:13:07.820Z,100068.81
2023-06-27T13:15:41.965Z,100078.06
2023-06-27T13:18:09.641Z,100078.59
2023-06-27T13:20:36.368Z,100067.88
2023-06-27T13:23:02.983Z,100058.50
2023-06-27T13:25:31.130Z,100060.94
2023-06-27T13:27:58.010Z,100062.56
2023-06-27T13:30:24.900Z,100059.47
2023-06-27T13:32:51.847Z,100057.50
2023-06-27T13:35:18.627Z,100049.38
2023-06-27T13:37:56.002Z,100044.47
2023-06-27T13:40:27.203Z,100045.84
2023-06-27T13:42:55.364Z,100048.66
2023-06-27T13:45:28.415Z,100045.84
2023-06-27T13:47:55.025Z,100041.97
2023-06-27T13:50:21.764Z,100047.53
2023-06-27T13:52:48.459Z,100039.13
2023-06-27T13:55:15.184Z,100032.56
2023-06-27T13:57:41.950Z,100036.66
2023-06-27T14:00:12.131Z,100030.09
2023-06-27T14:02:39.369Z,100028.19
2023-06-27T14:05:06.786Z,100030.53
2023-06-27T14:07:33.974Z,100028.16
2023-06-27T14:10:00.664Z,100020.31
2023-06-27T14:12:27.378Z,100018.97
2023-06-27T14:14:54.149Z,100017.94
2023-06-27T14:17:22.136Z,100015.47
2023-06-27T14:19:48.761Z,100026.03
2023-06-27T14:22:15.520Z,100017.44
2023-06-27T14:24:42.153Z,100012.63
2023-06-27T14:27:08.841Z,100017.41
2023-06-27T14:29:35.822Z,100019.19
2023-06-27T14:32:02.547Z,100014.19
2023-06-27T14:34:30.505Z,100013.72
2023-06-27T14:36:57.177Z,100012.47
2023-06-27T14:39:24.183Z,100008.75
2023-06-27T14:41:51.047Z,100020.03
2023-06-27T14:44:17.643Z,100014.50
2023-06-27T14:46:44.395Z,100012.63
2023-06-27T14:49:11.190Z,100015.50
2023-06-27T14:51:39.272Z,100015.88
2023-06-27T14:54:05.964Z,100007.91
2023-06-27T14:56:32.609Z,100008.59
2023-06-27T14:58:59.243Z,100004.66
2023-06-27T15:01:26.232Z,99994.53
2023-06-27T15:03:53.455Z,100003.81
2023-06-27T15:06:20.517Z,100003.34
2023-06-27T15:08:48.560Z,99994.41
2023-06-27T15:11:15.233Z,99993.78
2023-06-27T15:13:41.944Z,100006.28
2023-06-27T15:16:08.675Z,99987.72
2023-06-27T15:18:35.321Z,99993.31
2023-06-27T15:21:02.167Z,99990.16
2023-06-27T15:23:38.721Z,99993.94
2023-06-27T15:26:08.260Z,99990.53
2023-06-27T15:28:35.088Z,99987.09
2023-06-27T15:31:01.934Z,99982.72
2023-06-27T15:33:28.786Z,99975.66
2023-06-27T15:35:55.442Z,99977.13
2023-06-27T15:38:22.035Z,99988.63
2023-06-27T15:40:48.789Z,99993.41
2023-06-27T15:43:16.716Z,99982.47
2023-06-27T15:45:43.354Z,99998.00
2023-06-27T15:48:10.224Z,99998.25
2023-06-27T15:50:36.868Z,100003.91
2023-06-27T15:53:03.609Z,100000.31
2023-06-27T15:55:30.241Z,99987.50
2023-06-27T15:57:57.358Z,99989.94
2023-06-27T16:00:29.331Z,99991.53
2023-06-27T16:02:56.036Z,99995.28
2023-06-27T16:05:22.932Z,99996.53
2023-06-27T16:07:50.444Z,99982.41
2023-06-27T16:10:17.129Z,99989.31
2023-06-27T16:12:43.789Z,99988.38
2023-06-27T16:15:10.770Z,99978.41
2023-06-27T16:17:41.925Z,99993.19
2023-06-27T16:20:09.379Z,99982.81
2023-06-27T16:22:35.956Z,99983.69
2023-06-27T16:25:02.633Z,99971.78
2023-06-27T16:27:29.288Z,99974.25
2023-06-27T16:29:56.222Z,99972.66
2023-06-27T16:32:22.869Z,99974.13
2023-06-27T16:34:51.044Z,99967.59
2023-06-27T16:37:17.701Z,99978.50
2023-06-27T16:39:44.292Z,99969.25
2023-06-27T16:42:10.927Z,99971.47
2023-06-27T16:44:37.522Z,99972.72
2023-06-27T16:47:04.477Z,99973.28
2023-06-27T16:49:31.223Z,99968.84
2023-06-27T16:51:59.167Z,99976.25
2023-06-27T16:54:25.993Z,99982.13
2023-06-27T16:56:52.687Z,99975.78
2023-06-27T16:59:19.429Z,99975.41
2023-06-27T17:01:50.683Z,99973.31
2023-06-27T17:04:18.854Z,99974.38
2023-06-27T17:06:45.668Z,99973.13
2023-06-27T17:09:14.019Z,99975.41
2023-06-27T17:11:40.989Z,99973.88
2023-06-27T17:14:07.680Z,99977.03
2023-06-27T17:16:34.339Z,99979.91
2023-06-27T17:19:01.134Z,99974.31
2023-06-27T17:21:27.902Z,99981.41
2023-06-27T17:23:54.664Z,99984.97
2023-06-27T17:26:22.634Z,99984.03
2023-06-27T17:28:49.243Z,99986.56
2023-06-27T17:31:16.060Z,99985.34
2023-06-27T17:33:42.994Z,99985.13
2023-06-27T17:36:09.755Z,99978.44
2023-06-27T17:38:36.312Z,99989.03
2023-06-27T17:41:03.364Z,99986.25
2023-06-27T17:43:31.596Z,99986.56
2023-06-27T17:45:58.687Z,99980.22
2023-06-27T17:48:25.361Z,99989.25
2023-06-27T17:50:52.217Z,99983.13
2023-06-27T17:53:18.858Z,99981.09
2023-06-27T17:55:45.473Z,99986.53
2023-06-27T17:58:12.342Z,99973.84
2023-06-27T18:00:40.562Z,99968.88
2023-06-27T18:03:07.491Z,99973.13
2023-06-27T18:05:34.312Z,99977.00
2023-06-27T18:08:00.964Z,99976.66
2023-06-27T18:10:28.182Z,99995.34
2023-06-27T18:12:54.911Z,100002.97
2023-06-27T18:15:21.528Z,100006.41
2023-06-27T18:17:49.913Z,100000.50
2023-06-27T18:20:16.529Z,99997.28
2023-06-27T18:22:43.145Z,99998.59
2023-06-27T18:25:10.385Z,99999.09
2023-06-27T18:27:37.014Z,100002.03
2023-06-27T18:30:04.066Z,100005.19
2023-06-27T18:32:30.755Z,100007.25
2023-06-27T18:34:58.907Z,100007.81
2023-06-27T18:37:25.797Z,100005.34
2023-06-27T18:39:52.465Z,100011.78
2023-06-27T18:42:19.113Z,100005.72
2023-06-27T18:44:46.247Z,100023.16
2023-06-27T18:47:12.854Z,100027.69
2023-06-27T18:49:39.426Z,100030.56
2023-06-27T18:52:08.410Z,100025.56
2023-06-27T18:54:35.024Z,100030.38
2023-06-27T18:57:01.714Z,100027.75
2023-06-27T18:59:28.317Z,100032.03
2023-06-27T19:01:55.336Z,100027.75
2023-06-27T19:04:22.248Z,100028.44
2023-06-27T19:06:49.493Z,100026.50
2023-06-27T19:09:19.407Z,100023.38
2023-06-27T19:11:46.308Z,100026.53
2023-06-27T19:14:13.775Z,100022.91
2023-06-27T19:16:40.811Z,100025.31
2023-06-27T19:19:08.404Z,100009.19
2023-06-27T19:21:35.476Z,100023.91
2023-06-27T19:24:02.376Z,100022.50
2023-06-27T19:26:30.589Z,100026.28
2023-06-27T19:28:57.180Z,100025.06
2023-06-27T19:31:23.884Z,100025.78
2023-06-27T19:33:50.936Z,100030.53
2023-06-27T19:36:17.844Z,100027.69
2023-06-27T19:38:44.492Z,100018.78
2023-06-27T19:41:11.113Z,100030.34
2023-06-27T19:43:39.373Z,100047.44
2023-06-27T19:46:05.994Z,100037.88
2023-06-27T19:48:32.591Z,100036.53
2023-06-27T19:50:59.382Z,100027.28
2023-06-27T19:53:27.160Z,100033.69
2023-06-27T19:55:54.273Z,100044.28
2023-06-27T19:58:21.516Z,100033.31
2023-06-27T20:00:50.212Z,100029.13
2023-06-27T20:03:17.020Z,100031.91
2023-06-27T20:05:51.284Z,100033.94
2023-06-27T20:08:22.665Z,100041.19
2023-06-27T20:10:49.385Z,100048.25
2023-06-27T20:13:16.519Z,100046.13
2023-06-27T20:15:43.436Z,100047.31
2023-06-27T20:18:11.501Z,100047.09
2023-06-27T20:20:38.303Z,100042.44
2023-06-27T20:23:04.950Z,100055.22
2023-06-27T20:25:31.557Z,100050.81
2023-06-27T20:27:58.250Z,100052.00
2023-06-27T20:30:24.866Z,100047.78
2023-06-27T20:32:51.799Z,100052.06
2023-06-27T20:35:20.461Z,100049.06
2023-06-27T20:37:47.272Z,100051.22
2023-06-27T20:40:14.252Z,100052.38
2023-06-27T20:42:40.850Z,100052.25
2023-06-27T20:45:08.564Z,100051.38
2023-06-27T20:47:35.282Z,100049.69
2023-06-27T20:50:02.097Z,100042.34
2023-06-27T20:52:30.060Z,100049.53
2023-06-27T20:54:56.642Z,100046.47
2023-06-27T20:57:23.395Z,100047.66
2023-06-27T20:59:50.029Z,100046.63
2023-06-27T21:02:16.742Z,100044.00
2023-06-27T21:04:44.087Z,100048.59
2023-06-27T21:07:10.779Z,100044.19
2023-06-27T21:09:38.743Z,100043.78
2023-06-27T21:12:06.489Z,100044.31
2023-06-27T21:14:33.478Z,100042.69
2023-06-27T21:17:00.450Z,100045.75
2023-06-27T21:19:27.335Z,100040.69
2023-06-27T21:21:53.985Z,100040.22
2023-06-27T21:24:20.740Z,100043.84
2023-06-27T21:26:48.730Z,100051.53
2023-06-27T21:29:15.279Z,100048.91
2023-06-27T21:31:42.110Z,100046.22
2023-06-27T21:34:08.714Z,100041.09
2023-06-27T21:36:35.477Z,100039.94
2023-06-27T21:39:02.249Z,100044.81
2023-06-27T21:41:28.978Z,100042.75
2023-06-27T21:43:56.945Z,100042.75
2023-06-27T21:46:23.700Z,100036.69
2023-06-27T21:48:50.359Z,100033.69
2023-06-27T21:51:17.033Z,100034.41
2023-06-27T21:53:43.769Z,100030.75
2023-06-27T21:56:10.525Z,100028.59
2023-06-27T21:58:37.536Z,100021.91
2023-06-27T22:01:05.784Z,100022.38
2023-06-27T22:03:35.950Z,100022.31
2023-06-27T22:06:02.878Z,100024.75
2023-06-27T22:08:29.478Z,100030.72
2023-06-27T22:10:56.455Z,100023.94
2023-06-27T22:13:23.219Z,100038.78
2023-06-27T22:15:49.910Z,100030.31
2023-06-27T22:18:18.049Z,100035.03
2023-06-27T22:20:44.701Z,100032.66
2023-06-27T22:23:11.464Z,100025.91
2023-06-27T22:25:38.229Z,100026.09
2023-06-27T22:28:04.892Z,100028.03
2023-06-27T22:30:31.490Z,100033.22
2023-06-27T22:32:58.277Z,100027.31
2023-06-27T22:35:26.335Z,100027.47
2023-06-27T22:37:53.081Z,100027.31
2023-06-27T22:40:21.466Z,100024.28
2023-06-27T22:42:48.261Z,100027.88
2023-06-27T22:45:14.846Z,100025.25
2023-06-27T22:47:41.643Z,100025.88
2023-06-27T22:50:08.778Z,100037.34
2023-06-27T22:52:36.739Z,100035.19
2023-06-27T22:55:03.497Z,100042.13
2023-06-27T22:57:30.111Z,100036.06
2023-06-27T22:59:56.835Z,100035.94
2023-06-27T23:02:23.441Z,100037.13
2023-06-27T23:04:50.820Z,100033.38
2023-06-27T23:07:17.612Z,100028.91
2023-06-27T23:09:45.636Z,100038.34
2023-06-27T23:12:12.377Z,100030.22
2023-06-27T23:14:39.636Z,100029.56
2023-06-27T23:17:07.428Z,100041.47
2023-06-27T23:19:34.229Z,100031.75
2023-06-27T23:22:00.969Z,100043.84
2023-06-27T23:24:27.924Z,100040.75
2023-06-27T23:26:56.493Z,100034.97
2023-06-27T23:29:23.077Z,100048.31
2023-06-27T23:31:49.672Z,100044.88
2023-06-27T23:34:16.259Z,100043.56
2023-06-27T23:36:42.977Z,100042.88
2023-06-27T23:39:10.513Z,100038.34
2023-06-27T23:41:37.392Z,100043.03
2023-06-27T23:44:05.757Z,100045.03
2023-06-27T23:46:33.066Z,100044.03
2023-06-27T23:48:59.690Z,100044.59
2023-06-27T23:51:26.320Z,100035.19
2023-06-27T23:53:53.203Z,100043.91
2023-06-27T23:56:19.889Z,100039.09
2023-06-27T23:58:46.692Z,100041.00
